createdAt,value
2023-05-04T00:00:27.665Z,98795.69
2023-05-04T00:02:55.335Z,98786.72
2023-05-04T00:05:24.254Z,98787.53
2023-05-04T00:07:51.879Z,98793.81
2023-05-04T00:10:19.476Z,98792.97
2023-05-04T00:12:47.220Z,98802.75
2023-05-04T00:15:14.940Z,98795.25
2023-05-04T00:17:42.505Z,98798.63
2023-05-04T00:20:10.431Z,98805.91
2023-05-04T00:22:39.910Z,98799.84
2023-05-04T00:25:08.198Z,98799.88
2023-05-04T00:27:36.069Z,98798.16
2023-05-04T00:30:03.838Z,98802.03
2023-05-04T00:32:31.673Z,98800.38
2023-05-04T00:35:00.481Z,98804.22
2023-05-04T00:37:28.190Z,98792.97
2023-05-04T00:39:57.027Z,98785.69
2023-05-04T00:42:24.606Z,98794.03
2023-05-04T00:44:52.129Z,98787.34
2023-05-04T00:47:21.420Z,98779.22
2023-05-04T00:49:49.023Z,98801.44
2023-05-04T00:52:16.678Z,98813.31
2023-05-04T00:54:44.198Z,98818.06
2023-05-04T00:57:13.179Z,98813.50
2023-05-04T00:59:41.060Z,98811.41
2023-05-04T01:02:08.764Z,98807.38
2023-05-04T01:04:36.263Z,98813.75
2023-05-04T01:07:05.520Z,98811.72
2023-05-04T01:09:36.224Z,98814.13
2023-05-04T01:12:05.905Z,98806.72
2023-05-04T01:14:34.968Z,98808.94
2023-05-04T01:17:04.112Z,98819.56
2023-05-04T01:19:31.859Z,98826.75
2023-05-04T01:22:00.904Z,98833.22
2023-05-04T01:24:28.553Z,98843.19
2023-05-04T01:26:57.337Z,98840.72
2023-05-04T01:29:26.583Z,98832.59
2023-05-04T01:31:55.472Z,98839.78
2023-05-04T01:34:22.995Z,98818.94
2023-05-04T01:36:50.518Z,98828.22
2023-05-04T01:39:19.453Z,98824.97
2023-05-04T01:41:46.981Z,98831.97
2023-05-04T01:44:16.455Z,98822.97
2023-05-04T01:46:44.769Z,98822.66
2023-05-04T01:49:12.382Z,98832.16
2023-05-04T01:51:39.981Z,98829.53
2023-05-04T01:54:07.588Z,98819.09
2023-05-04T01:56:36.522Z,98828.63
2023-05-04T01:59:04.369Z,98826.09
2023-05-04T02:01:32.086Z,98831.53
2023-05-04T02:03:59.971Z,98840.06
2023-05-04T02:06:27.751Z,98822.78
2023-05-04T02:08:55.584Z,98825.28
2023-05-04T02:11:23.159Z,98826.53
2023-05-04T02:13:54.873Z,98829.97
2023-05-04T02:16:22.514Z,98818.28
2023-05-04T02:18:50.097Z,98819.06
2023-05-04T02:21:18.145Z,98815.09
2023-05-04T02:23:45.704Z,98816.34
2023-05-04T02:26:13.250Z,98814.03
2023-05-04T02:28:40.879Z,98811.94
2023-05-04T02:31:11.564Z,98822.16
2023-05-04T02:33:39.105Z,98808.00
2023-05-04T02:36:07.387Z,98805.69
2023-05-04T02:38:34.981Z,98807.13
2023-05-04T02:41:02.537Z,98812.97
2023-05-04T02:43:30.020Z,98818.84
2023-05-04T02:45:57.633Z,98823.22
2023-05-04T02:48:27.166Z,98817.16
2023-05-04T02:50:54.701Z,98810.19
2023-05-04T02:53:22.418Z,98807.25
2023-05-04T02:55:50.320Z,98798.81
2023-05-04T02:58:17.879Z,98793.81
2023-05-04T03:00:45.510Z,98794.25
2023-05-04T03:03:13.092Z,98797.34
2023-05-04T03:05:41.982Z,98785.69
2023-05-04T03:08:11.578Z,98778.19
2023-05-04T03:10:39.164Z,98783.16
2023-05-04T03:13:06.871Z,98789.44
2023-05-04T03:15:35.008Z,98790.47
2023-05-04T03:18:02.795Z,98781.91
2023-05-04T03:20:30.453Z,98783.91
2023-05-04T03:23:02.344Z,98790.88
2023-05-04T03:25:31.215Z,98782.84
2023-05-04T03:27:59.083Z,98784.94
2023-05-04T03:30:27.041Z,98783.25
2023-05-04T03:32:58.282Z,98792.53
2023-05-04T03:35:26.015Z,98788.16
2023-05-04T03:37:56.167Z,98799.84
2023-05-04T03:40:25.335Z,98788.50
2023-05-04T03:42:54.736Z,98791.94
2023-05-04T03:45:23.579Z,98796.50
2023-05-04T03:47:52.061Z,98804.22
2023-05-04T03:50:21.390Z,98797.34
2023-05-04T03:52:49.314Z,98800.91
2023-05-04T03:55:19.560Z,98799.56
2023-05-04T03:57:52.347Z,98798.94
2023-05-04T04:00:20.333Z,98789.53
2023-05-04T04:02:56.352Z,98783.34
2023-05-04T04:05:24.025Z,98775.56
2023-05-04T04:07:53.478Z,98784.78
2023-05-04T04:10:21.029Z,98785.34
2023-05-04T04:12:48.546Z,98795.25
2023-05-04T04:15:17.533Z,98800.22
2023-05-04T04:17:45.086Z,98808.41
2023-05-04T04:20:13.963Z,98808.81
2023-05-04T04:22:41.505Z,98812.56
2023-05-04T04:25:10.451Z,98821.94
2023-05-04T04:27:38.009Z,98835.31
2023-05-04T04:30:06.921Z,98831.75
2023-05-04T04:32:36.086Z,98838.63
2023-05-04T04:35:04.358Z,98850.81
2023-05-04T04:37:31.861Z,98852.09
2023-05-04T04:39:59.500Z,98855.91
2023-05-04T04:42:27.124Z,98858.22
2023-05-04T04:44:54.676Z,98864.22
2023-05-04T04:47:22.675Z,98881.34
2023-05-04T04:49:51.547Z,98887.75
2023-05-04T04:52:19.116Z,98892.13
2023-05-04T04:54:46.754Z,98887.53
2023-05-04T04:57:14.702Z,98887.22
2023-05-04T04:59:42.236Z,98898.13
2023-05-04T05:02:11.697Z,98889.09
2023-05-04T05:04:39.946Z,98889.97
2023-05-04T05:07:10.515Z,98888.53
2023-05-04T05:09:38.453Z,98891.69
2023-05-04T05:12:07.428Z,98894.44
2023-05-04T05:14:35.195Z,98891.75
2023-05-04T05:17:04.205Z,98898.00
2023-05-04T05:19:34.188Z,98889.69
2023-05-04T05:22:01.711Z,98889.00
2023-05-04T05:24:30.927Z,98878.22
2023-05-04T05:26:58.489Z,98872.19
2023-05-04T05:29:26.168Z,98875.56
2023-05-04T05:31:53.915Z,98867.47
2023-05-04T05:34:21.436Z,98862.97
2023-05-04T05:36:49.381Z,98852.06
2023-05-04T05:39:17.683Z,98853.97
2023-05-04T05:41:46.849Z,98846.13
2023-05-04T05:44:14.364Z,98844.28
2023-05-04T05:46:41.942Z,98841.44
2023-05-04T05:49:09.732Z,98829.50
2023-05-04T05:51:37.229Z,98828.19
2023-05-04T05:54:04.920Z,98816.19
2023-05-04T05:56:32.435Z,98797.81
2023-05-04T05:59:01.367Z,98791.06
2023-05-04T06:01:28.901Z,98778.97
2023-05-04T06:03:56.678Z,98758.84
2023-05-04T06:06:24.394Z,98744.03
2023-05-04T06:08:51.968Z,98731.88
2023-05-04T06:11:19.475Z,98731.25
2023-05-04T06:13:47.314Z,98717.22
2023-05-04T06:16:16.261Z,98697.66
2023-05-04T06:18:43.884Z,98665.88
2023-05-04T06:21:11.399Z,98628.56
2023-05-04T06:23:38.962Z,98606.53
2023-05-04T06:26:07.847Z,98572.13
2023-05-04T06:28:35.826Z,98558.28
2023-05-04T06:31:03.686Z,98529.63
2023-05-04T06:33:32.630Z,98524.16
2023-05-04T06:36:00.292Z,98507.53
2023-05-04T06:38:27.905Z,98484.75
2023-05-04T06:40:55.736Z,98459.34
2023-05-04T06:43:23.283Z,98446.16
2023-05-04T06:45:50.880Z,98436.81
2023-05-04T06:48:18.606Z,98425.00
2023-05-04T06:50:47.443Z,98411.03
2023-05-04T06:53:15.153Z,98404.47
2023-05-04T06:55:42.654Z,98388.59
2023-05-04T06:58:10.293Z,98381.94
2023-05-04T07:00:37.924Z,98368.25
2023-05-04T07:03:05.532Z,98363.03
2023-05-04T07:05:35.019Z,98352.81
2023-05-04T07:08:03.908Z,98337.03
2023-05-04T07:10:31.562Z,98327.41
2023-05-04T07:12:59.069Z,98319.69
2023-05-04T07:15:26.863Z,98304.66
2023-05-04T07:17:54.347Z,98291.47
2023-05-04T07:20:23.627Z,98292.00
2023-05-04T07:22:55.021Z,98285.06
2023-05-04T07:25:23.906Z,98267.09
2023-05-04T07:27:51.409Z,98257.00
2023-05-04T07:30:18.973Z,98268.84
2023-05-04T07:32:46.536Z,98257.03
2023-05-04T07:35:14.663Z,98247.63
2023-05-04T07:37:42.201Z,98241.72
2023-05-04T07:40:10.305Z,98228.25
2023-05-04T07:42:39.193Z,98221.81
2023-05-04T07:45:08.394Z,98216.78
2023-05-04T07:47:35.925Z,98207.28
2023-05-04T07:50:04.320Z,98212.31
2023-05-04T07:52:32.068Z,98203.56
2023-05-04T07:54:59.756Z,98191.81
2023-05-04T07:57:27.401Z,98193.53
2023-05-04T07:59:56.469Z,98186.41
2023-05-04T08:02:24.110Z,98185.59
2023-05-04T08:04:51.625Z,98182.78
2023-05-04T08:07:20.522Z,98179.88
2023-05-04T08:09:48.000Z,98187.06
2023-05-04T08:12:15.519Z,98187.47
2023-05-04T08:14:43.295Z,98179.03
2023-05-04T08:17:12.079Z,98181.38
2023-05-04T08:19:39.567Z,98179.94
2023-05-04T08:22:10.335Z,98183.97
2023-05-04T08:24:37.873Z,98170.16
2023-05-04T08:27:08.661Z,98167.03
2023-05-04T08:29:37.437Z,98180.22
2023-05-04T08:32:05.840Z,98169.56
2023-05-04T08:34:34.858Z,98166.03
2023-05-04T08:37:02.613Z,98163.91
2023-05-04T08:39:30.537Z,98162.63
2023-05-04T08:41:58.035Z,98155.88
2023-05-04T08:44:25.702Z,98148.34
2023-05-04T08:46:56.343Z,98146.38
2023-05-04T08:49:24.184Z,98148.69
2023-05-04T08:51:53.016Z,98149.09
2023-05-04T08:54:20.973Z,98150.16
2023-05-04T08:56:48.626Z,98147.88
2023-05-04T08:59:18.933Z,98143.25
2023-05-04T09:01:47.252Z,98138.59
2023-05-04T09:04:14.820Z,98142.09
2023-05-04T09:06:42.276Z,98139.75
2023-05-04T09:09:11.078Z,98134.03
2023-05-04T09:11:39.246Z,98136.38
2023-05-04T09:14:06.979Z,98134.84
2023-05-04T09:16:34.903Z,98138.91
2023-05-04T09:19:02.368Z,98135.63
2023-05-04T09:21:29.975Z,98142.06
2023-05-04T09:23:57.664Z,98138.06
2023-05-04T09:26:30.028Z,98130.97
2023-05-04T09:28:57.624Z,98125.50
2023-05-04T09:31:25.288Z,98137.53
2023-05-04T09:33:53.710Z,98134.78
2023-05-04T09:36:23.075Z,98124.09
2023-05-04T09:38:50.577Z,98122.94
2023-05-04T09:41:18.362Z,98119.75
2023-05-04T09:43:47.225Z,98120.78
2023-05-04T09:46:18.564Z,98118.31
2023-05-04T09:48:54.234Z,98116.50
2023-05-04T09:52:08.140Z,98120.66
2023-05-04T09:54:36.356Z,98113.63
2023-05-04T09:57:06.831Z,98108.47
2023-05-04T09:59:35.665Z,98101.84
2023-05-04T10:02:18.164Z,98093.63
2023-05-04T10:04:49.297Z,98093.34
2023-05-04T10:07:17.259Z,98085.34
2023-05-04T10:09:45.553Z,98088.72
2023-05-04T10:12:17.335Z,98086.81
2023-05-04T10:14:48.038Z,98082.78
2023-05-04T10:17:19.825Z,98083.81
2023-05-04T10:19:51.638Z,98084.19
2023-05-04T10:22:22.690Z,98080.31
2023-05-04T10:25:05.289Z,98073.16
2023-05-04T10:27:39.597Z,98083.19
2023-05-04T10:30:09.330Z,98066.63
2023-05-04T10:32:39.987Z,98064.16
2023-05-04T10:35:08.221Z,98063.31
2023-05-04T10:37:37.994Z,98065.56
2023-05-04T10:40:08.119Z,98054.09
2023-05-04T10:42:41.826Z,98045.94
2023-05-04T10:45:11.259Z,98041.63
2023-05-04T10:47:40.730Z,98036.28
2023-05-04T10:50:14.235Z,98036.28
2023-05-04T10:52:47.953Z,98026.69
2023-05-04T10:55:15.604Z,98024.22
2023-05-04T10:57:50.572Z,98020.13
2023-05-04T11:00:19.689Z,98015.63
2023-05-04T11:02:47.686Z,98006.91
2023-05-04T11:05:18.283Z,98010.09
2023-05-04T11:07:46.035Z,98013.53
2023-05-04T11:10:27.209Z,98008.91
2023-05-04T11:13:02.751Z,98002.66
2023-05-04T11:15:33.926Z,97995.94
2023-05-04T11:18:02.434Z,97988.59
2023-05-04T11:20:29.923Z,97985.88
2023-05-04T11:22:57.478Z,97981.78
2023-05-04T11:25:28.111Z,97977.72
2023-05-04T11:27:55.720Z,97983.16
2023-05-04T11:30:30.717Z,97975.75
2023-05-04T11:33:00.441Z,97977.38
2023-05-04T11:35:28.045Z,97971.06
2023-05-04T11:37:55.793Z,97965.28
2023-05-04T11:40:23.751Z,97968.19
2023-05-04T11:42:51.297Z,97958.91
2023-05-04T11:45:19.156Z,97966.69
2023-05-04T11:47:47.007Z,97956.44
2023-05-04T11:50:19.520Z,97954.56
2023-05-04T11:52:47.106Z,97945.31
2023-05-04T11:55:14.907Z,97956.75
2023-05-04T11:57:42.385Z,97948.31
2023-05-04T12:00:10.430Z,97942.72
2023-05-04T12:02:38.004Z,97941.91
2023-05-04T12:05:06.244Z,97939.94
2023-05-04T12:07:38.549Z,97940.09
2023-05-04T12:10:06.613Z,97939.22
2023-05-04T12:12:37.644Z,97939.63
2023-05-04T12:15:05.844Z,97937.53
2023-05-04T12:17:42.693Z,97938.84
2023-05-04T12:20:10.480Z,97937.59
2023-05-04T12:22:39.513Z,97939.06
2023-05-04T12:25:09.332Z,97933.03
2023-05-04T12:27:37.033Z,97931.09
2023-05-04T12:30:04.810Z,97931.34
2023-05-04T12:32:32.317Z,97925.56
2023-05-04T12:34:59.848Z,97929.88
2023-05-04T12:37:27.343Z,97926.66
2023-05-04T12:39:56.178Z,97927.63
2023-05-04T12:42:24.202Z,97932.25
2023-05-04T12:44:51.700Z,97917.63
2023-05-04T12:47:20.733Z,97928.28
2023-05-04T12:49:48.247Z,97918.72
2023-05-04T12:52:15.892Z,97919.88
2023-05-04T12:54:43.420Z,97904.31
2023-05-04T12:57:12.519Z,97908.41
2023-05-04T12:59:40.057Z,97897.00
2023-05-04T13:02:07.773Z,97901.78
2023-05-04T13:04:35.298Z,97892.78
2023-05-04T13:07:03.232Z,97896.41
2023-05-04T13:09:30.739Z,97890.50
2023-05-04T13:11:58.211Z,97896.53
2023-05-04T13:14:27.071Z,97895.03
2023-05-04T13:16:54.953Z,97894.69
2023-05-04T13:19:22.600Z,97880.22
2023-05-04T13:21:50.082Z,97887.38
2023-05-04T13:24:17.596Z,97881.03
2023-05-04T13:26:45.951Z,97879.59
2023-05-04T13:29:13.495Z,97876.75
2023-05-04T13:31:44.914Z,97870.44
2023-05-04T13:34:12.711Z,97866.78
2023-05-04T13:36:40.186Z,97859.47
2023-05-04T13:39:07.717Z,97852.97
2023-05-04T13:41:35.185Z,97844.13
2023-05-04T13:44:02.688Z,97851.38
2023-05-04T13:46:30.212Z,97846.19
2023-05-04T13:48:59.039Z,97842.66
2023-05-04T13:51:26.837Z,97836.03
2023-05-04T13:53:54.338Z,97832.88
2023-05-04T13:56:21.847Z,97828.19
2023-05-04T13:58:49.359Z,97825.31
2023-05-04T14:01:16.987Z,97822.19
2023-05-04T14:03:44.610Z,97815.25
2023-05-04T14:06:13.440Z,97811.50
2023-05-04T14:08:40.985Z,97811.91
2023-05-04T14:11:08.454Z,97805.13
2023-05-04T14:13:35.987Z,97804.50
2023-05-04T14:16:03.610Z,97804.97
2023-05-04T14:18:32.299Z,97800.16
2023-05-04T14:20:59.934Z,97807.41
2023-05-04T14:23:28.779Z,97796.97
2023-05-04T14:25:57.086Z,97796.13
2023-05-04T14:28:24.810Z,97790.63
2023-05-04T14:30:52.292Z,97785.69
2023-05-04T14:33:19.808Z,97783.97
2023-05-04T14:35:48.302Z,97785.84
2023-05-04T14:38:15.998Z,97784.69
2023-05-04T14:40:45.511Z,97782.56
2023-05-04T14:43:14.135Z,97783.91
2023-05-04T14:45:41.755Z,97777.84
2023-05-04T14:48:09.327Z,97777.78
2023-05-04T14:50:36.834Z,97776.25
2023-05-04T14:53:04.428Z,97776.00
2023-05-04T14:55:33.509Z,97770.44
2023-05-04T14:58:02.406Z,97769.56
2023-05-04T15:00:29.928Z,97764.94
2023-05-04T15:02:57.488Z,97764.84
2023-05-04T15:05:25.046Z,97766.06
2023-05-04T15:07:52.574Z,97758.19
2023-05-04T15:10:20.100Z,97755.97
2023-05-04T15:12:47.669Z,97752.47
2023-05-04T15:15:16.600Z,97758.25
2023-05-04T15:17:44.116Z,97748.66
2023-05-04T15:20:12.689Z,97751.63
2023-05-04T15:22:40.191Z,97759.97
2023-05-04T15:25:07.995Z,97754.47
2023-05-04T15:27:35.478Z,97757.69
2023-05-04T15:30:03.730Z,97751.63
2023-05-04T15:32:32.651Z,97744.47
2023-05-04T15:35:06.570Z,97743.47
2023-05-04T15:37:34.171Z,97741.84
2023-05-04T15:40:04.110Z,97744.63
2023-05-04T15:42:31.986Z,97735.16
2023-05-04T15:44:59.504Z,97732.31
2023-05-04T15:47:27.097Z,97734.22
2023-05-04T15:49:55.982Z,97726.84
2023-05-04T15:52:24.082Z,97736.19
2023-05-04T15:54:51.638Z,97729.94
2023-05-04T15:57:19.135Z,97734.03
2023-05-04T15:59:47.697Z,97728.69
2023-05-04T16:02:15.319Z,97729.00
2023-05-04T16:04:42.860Z,97714.41
2023-05-04T16:07:11.763Z,97720.69
2023-05-04T16:09:39.373Z,97716.41
2023-05-04T16:12:07.189Z,97715.97
2023-05-04T16:14:38.071Z,97720.41
2023-05-04T16:17:05.713Z,97715.34
2023-05-04T16:19:33.246Z,97711.44
2023-05-04T16:22:01.286Z,97710.75
2023-05-04T16:24:34.014Z,97708.22
2023-05-04T16:27:01.905Z,97707.75
2023-05-04T16:29:29.396Z,97707.66
2023-05-04T16:31:57.025Z,97702.31
2023-05-04T16:34:24.549Z,97705.13
2023-05-04T16:36:52.181Z,97694.84
2023-05-04T16:39:20.035Z,97694.25
2023-05-04T16:41:50.347Z,97683.75
2023-05-04T16:44:18.110Z,97688.03
2023-05-04T16:46:45.688Z,97685.81
2023-05-04T16:49:14.643Z,97685.19
2023-05-04T16:51:43.384Z,97680.13
2023-05-04T16:54:13.376Z,97680.19
2023-05-04T16:56:40.907Z,97681.50
2023-05-04T17:01:56.478Z,97683.44
2023-05-04T17:04:25.301Z,97668.97
2023-05-04T17:06:52.794Z,97664.06
2023-05-04T17:09:20.345Z,97673.53
2023-05-04T17:11:47.869Z,97671.97
2023-05-04T17:14:16.933Z,97677.75
2023-05-04T17:16:44.502Z,97679.84
2023-05-04T17:19:11.981Z,97681.69
2023-05-04T17:21:40.407Z,97681.88
2023-05-04T17:24:07.934Z,97683.31
2023-05-04T17:26:35.371Z,97682.75
2023-05-04T17:29:02.884Z,97688.50
2023-05-04T17:31:31.845Z,97687.25
2023-05-04T17:34:02.363Z,97680.44
2023-05-04T17:36:29.922Z,97683.13
2023-05-04T17:38:57.604Z,97688.28
2023-05-04T17:41:25.837Z,97677.84
2023-05-04T17:43:54.107Z,97672.94
2023-05-04T17:46:21.703Z,97685.81
2023-05-04T17:48:52.080Z,97677.47
2023-05-04T17:51:22.807Z,97679.72
2023-05-04T17:53:50.416Z,97680.94
2023-05-04T17:56:19.739Z,97684.81
2023-05-04T17:58:47.273Z,97688.28
2023-05-04T18:01:16.555Z,97692.75
2023-05-04T18:03:44.353Z,97694.97
2023-05-04T18:06:13.276Z,97701.16
2023-05-04T18:08:40.786Z,97704.78
2023-05-04T18:11:08.337Z,97704.00
2023-05-04T18:13:35.982Z,97702.00
2023-05-04T18:16:03.958Z,97703.53
2023-05-04T18:18:31.880Z,97707.41
2023-05-04T18:21:00.714Z,97709.13
2023-05-04T18:23:30.108Z,97710.50
2023-05-04T18:25:57.584Z,97713.13
2023-05-04T18:28:26.077Z,97712.69
2023-05-04T18:30:53.852Z,97713.63
2023-05-04T18:33:21.900Z,97712.91
2023-05-04T18:35:49.898Z,97718.34
2023-05-04T18:38:18.745Z,97720.63
2023-05-04T18:40:51.632Z,97712.28
2023-05-04T18:43:19.286Z,97723.50
2023-05-04T18:45:47.293Z,97714.50
2023-05-04T18:48:15.296Z,97721.06
2023-05-04T18:50:49.424Z,97722.38
2023-05-04T18:53:17.173Z,97732.13
2023-05-04T18:55:44.750Z,97730.25
2023-05-04T18:58:13.691Z,97731.22
2023-05-04T19:00:42.379Z,97743.56
2023-05-04T19:03:14.085Z,97749.25
2023-05-04T19:05:42.773Z,97756.34
2023-05-04T19:08:10.730Z,97760.19
2023-05-04T19:10:38.594Z,97770.97
2023-05-04T19:13:06.484Z,97770.66
2023-05-04T19:15:35.419Z,97776.22
2023-05-04T19:18:03.054Z,97782.59
2023-05-04T19:20:30.864Z,97794.22
2023-05-04T19:23:00.465Z,97798.94
2023-05-04T19:25:34.856Z,97800.78
2023-05-04T19:28:07.860Z,97807.88
2023-05-04T19:30:37.131Z,97809.50
2023-05-04T19:33:04.850Z,97815.19
2023-05-04T19:35:32.419Z,97821.44
2023-05-04T19:38:01.398Z,97828.41
2023-05-04T19:40:29.486Z,97845.19
2023-05-04T19:42:57.084Z,97850.78
2023-05-04T19:45:24.706Z,97857.72
2023-05-04T19:47:56.877Z,97851.31
2023-05-04T19:50:24.681Z,97856.97
2023-05-04T19:52:56.965Z,97860.97
2023-05-04T19:55:24.663Z,97867.34
2023-05-04T19:57:53.074Z,97860.34
2023-05-04T20:00:22.126Z,97873.28
2023-05-04T20:02:49.968Z,97881.56
2023-05-04T20:05:21.279Z,97878.66
2023-05-04T20:07:48.802Z,97891.75
2023-05-04T20:10:16.649Z,97891.56
2023-05-04T20:12:44.547Z,97886.19
2023-05-04T20:15:13.858Z,97891.81
2023-05-04T20:17:41.584Z,97892.16
2023-05-04T20:20:09.702Z,97897.22
2023-05-04T20:22:39.255Z,97895.78
2023-05-04T20:25:06.878Z,97897.13
2023-05-04T20:27:34.476Z,97897.78
2023-05-04T20:30:01.965Z,97894.97
2023-05-04T20:32:31.169Z,97905.69
2023-05-04T20:34:58.724Z,97909.28
2023-05-04T20:37:29.133Z,97903.66
2023-05-04T20:40:00.276Z,97914.19
2023-05-04T20:42:29.439Z,97913.84
2023-05-04T20:44:57.022Z,97922.09
2023-05-04T20:47:24.544Z,97914.84
2023-05-04T20:49:52.553Z,97916.47
2023-05-04T20:52:20.199Z,97907.38
2023-05-04T20:54:47.766Z,97910.69
2023-05-04T20:57:17.001Z,97914.47
2023-05-04T20:59:47.077Z,97908.19
2023-05-04T21:02:14.726Z,97908.19
2023-05-04T21:04:43.412Z,97913.78
2023-05-04T21:07:11.283Z,97909.88
2023-05-04T21:09:38.846Z,97911.88
2023-05-04T21:12:06.878Z,97909.28
2023-05-04T21:14:35.910Z,97912.72
2023-05-04T21:17:07.074Z,97908.97
2023-05-04T21:19:34.744Z,97903.69
2023-05-04T21:22:16.586Z,97888.25
2023-05-04T21:24:45.958Z,97884.41
2023-05-04T21:27:20.956Z,97884.31
2023-05-04T21:30:16.718Z,97877.19
2023-05-04T21:33:08.263Z,97855.34
2023-05-04T21:36:01.196Z,97845.41
2023-05-04T21:38:29.322Z,97832.94
2023-05-04T21:41:02.775Z,97824.47
2023-05-04T21:43:30.733Z,97816.38
2023-05-04T21:45:59.529Z,97812.91
2023-05-04T21:48:27.069Z,97825.25
2023-05-04T21:50:54.554Z,97823.94
2023-05-04T21:53:22.152Z,97828.88
2023-05-04T21:55:49.682Z,97824.78
2023-05-04T21:58:17.620Z,97835.91
2023-05-04T22:00:45.342Z,97834.63
2023-05-04T22:03:14.276Z,97838.25
2023-05-04T22:05:41.791Z,97852.03
2023-05-04T22:08:12.294Z,97847.94
2023-05-04T22:10:41.216Z,97837.41
2023-05-04T22:13:08.895Z,97842.19
2023-05-04T22:15:48.737Z,97843.69
2023-05-04T22:18:18.266Z,97847.28
2023-05-04T22:20:46.050Z,97841.78
2023-05-04T22:23:13.612Z,97846.63
2023-05-04T22:25:41.195Z,97842.47
2023-05-04T22:28:08.858Z,97844.06
2023-05-04T22:30:36.485Z,97848.34
2023-05-04T22:33:04.289Z,97850.34
2023-05-04T22:35:36.215Z,97849.66
2023-05-04T22:38:05.016Z,97846.63
2023-05-04T22:40:32.671Z,97852.03
2023-05-04T22:43:00.562Z,97851.53
2023-05-04T22:45:28.206Z,97853.38
2023-05-04T22:47:55.913Z,97846.47
2023-05-04T22:50:23.567Z,97836.59
2023-05-04T22:52:52.464Z,97837.56
2023-05-04T22:55:20.241Z,97839.88
2023-05-04T22:57:47.788Z,97839.56
2023-05-04T23:00:16.221Z,97839.56
2023-05-04T23:02:43.857Z,97833.25
2023-05-04T23:05:11.568Z,97827.47
2023-05-04T23:07:39.613Z,97812.44
2023-05-04T23:10:09.468Z,97813.03
2023-05-04T23:12:37.140Z,97800.88
2023-05-04T23:15:05.174Z,97796.50
2023-05-04T23:17:34.156Z,97792.03
2023-05-04T23:20:01.894Z,97793.13
2023-05-04T23:22:31.953Z,97787.59
2023-05-04T23:24:59.445Z,97785.25
2023-05-04T23:27:28.429Z,97785.25
2023-05-04T23:29:55.939Z,97783.88
2023-05-04T23:32:23.507Z,97786.50
2023-05-04T23:34:51.070Z,97777.47
2023-05-04T23:37:18.642Z,97776.00
2023-05-04T23:39:46.324Z,97768.44
2023-05-04T23:42:13.882Z,97768.56
2023-05-04T23:44:42.748Z,97765.03
2023-05-04T23:47:10.309Z,97757.53
2023-05-04T23:49:37.833Z,97758.19
2023-05-04T23:52:05.556Z,97752.16
2023-05-04T23:54:33.587Z,97752.16
2023-05-04T23:57:01.177Z,97743.38
2023-05-04T23:59:28.704Z,97741.78
